Time;durP1;ratioP1;P1;durP2;ratioP2;P2;SDS_P1;SDS_P2;PMS_P1;PMS_P2;Temp;Humidity;BMP_temperature;BMP_pressure;BME280_temperature;BME280_humidity;BME280_pressure;Samples;Min_cycle;Max_cycle;Signal;HPM_P1;HPM_P2
2023/07/02 00:01:03;;;;;;;8.13;5.12;;;;;;;22.02;73.21;99362.84;1811571;79;21142;-75
2023/07/02 00:03:33;;;;;;;5.65;5.10;;;;;;;22.00;73.30;99362.30;1807556;79;21560;-78
2023/07/02 00:06:02;;;;;;;10.00;5.10;;;;;;;21.99;73.52;99355.89;1805688;79;21222;-77
2023/07/02 00:08:31;;;;;;;6.17;5.20;;;;;;;21.97;73.76;99363.73;1805677;79;21146;-76
2023/07/02 00:10:59;;;;;;;6.22;4.72;;;;;;;21.92;74.05;99357.39;1805685;79;21176;-76
2023/07/02 00:13:28;;;;;;;5.78;5.05;;;;;;;21.90;74.34;99356.29;1805660;79;21119;-77
2023/07/02 00:15:58;;;;;;;5.80;4.75;;;;;;;21.91;74.55;99359.91;1805683;79;21126;-76
2023/07/02 00:18:33;;;;;;;6.28;5.10;;;;;;;21.92;74.58;99357.39;1805584;79;21103;-75
2023/07/02 00:20:58;;;;;;;8.43;5.50;;;;;;;21.92;74.71;99355.99;1805151;79;21107;-75
2023/07/02 00:23:28;;;;;;;7.58;5.35;;;;;;;21.92;74.69;99361.01;1805660;79;21127;-75
2023/07/02 00:26:00;;;;;;;5.10;4.60;;;;;;;21.90;74.59;99351.28;1805672;79;21087;-76
2023/07/02 00:28:28;;;;;;;7.22;5.05;;;;;;;21.90;74.63;99356.86;1775539;79;21297;-77
2023/07/02 00:30:57;;;;;;;6.72;5.45;;;;;;;21.86;74.67;99357.19;1805784;79;21170;-77
2023/07/02 00:33:26;;;;;;;6.97;5.30;;;;;;;21.82;74.82;99358.34;1805675;79;21130;-72
2023/07/02 00:35:55;;;;;;;7.08;5.10;;;;;;;21.79;74.90;99354.19;1805544;79;21113;-76
2023/07/02 00:38:24;;;;;;;6.72;5.37;;;;;;;21.74;75.00;99349.23;1805564;79;21107;-76
2023/07/02 00:40:52;;;;;;;7.20;5.08;;;;;;;21.74;75.25;99353.42;1805864;79;21107;-76
2023/07/02 00:43:22;;;;;;;15.18;5.60;;;;;;;21.75;75.31;99358.70;1805536;79;21115;-76
2023/07/02 00:45:51;;;;;;;5.55;5.00;;;;;;;21.74;75.31;99365.97;1805510;79;21181;-76
2023/07/02 00:48:22;;;;;;;6.67;5.05;;;;;;;21.71;75.55;99364.60;1805672;79;21162;-78
2023/07/02 00:50:50;;;;;;;6.47;5.05;;;;;;;21.70;75.73;99364.91;1805756;79;21565;-75
2023/07/02 00:53:20;;;;;;;7.17;5.40;;;;;;;21.67;75.87;99360.75;1805561;79;21185;-75
2023/07/02 00:55:49;;;;;;;7.10;6.08;;;;;;;21.64;76.07;99364.12;1805670;79;21102;-75
2023/07/02 00:58:20;;;;;;;8.03;7.22;;;;;;;21.61;76.29;99360.54;1805709;79;21107;-76
2023/07/02 01:00:48;;;;;;;14.60;9.13;;;;;;;21.62;76.31;99362.20;1805449;79;21583;-75
2023/07/02 01:03:18;;;;;;;11.70;9.98;;;;;;;21.62;76.44;99368.34;1802956;79;21134;-75
2023/07/02 01:05:47;;;;;;;10.63;8.03;;;;;;;21.61;76.55;99365.28;1799693;80;21102;-73
2023/07/02 01:08:17;;;;;;;8.05;6.95;;;;;;;21.60;76.62;99365.84;1800032;80;21087;-74
2023/07/02 01:10:46;;;;;;;8.35;6.80;;;;;;;21.60;76.68;99367.80;1799635;79;21599;-77
2023/07/02 01:13:19;;;;;;;9.65;6.28;;;;;;;21.59;76.72;99360.56;1799577;80;21554;-76
2023/07/02 01:15:49;;;;;;;9.10;6.08;;;;;;;21.53;76.86;99348.64;1799584;79;21598;-73
2023/07/02 01:18:18;;;;;;;7.90;6.12;;;;;;;21.53;77.08;99355.61;1799728;79;21538;-74
2023/07/02 01:20:47;;;;;;;7.92;6.25;;;;;;;21.51;77.22;99353.68;1799596;80;21582;-75
2023/07/02 01:23:16;;;;;;;7.10;6.40;;;;;;;21.51;77.37;99353.68;1799756;79;21138;-76
2023/07/02 01:25:45;;;;;;;8.35;6.65;;;;;;;21.50;77.29;99358.98;1799500;79;21618;-75
2023/07/02 01:28:15;;;;;;;7.85;6.30;;;;;;;21.47;77.43;99356.23;1799690;79;21158;-76
2023/07/02 01:30:45;;;;;;;9.68;6.47;;;;;;;21.47;77.59;99359.58;1799720;80;21111;-74
2023/07/02 01:33:16;;;;;;;8.75;6.53;;;;;;;21.48;77.71;99359.28;1799893;80;21123;-75
2023/07/02 01:35:46;;;;;;;7.90;6.65;;;;;;;21.50;77.77;99356.20;1799682;79;21193;-76
2023/07/02 01:38:15;;;;;;;9.30;6.67;;;;;;;21.50;77.73;99353.41;1799783;80;21079;-77
2023/07/02 01:40:45;;;;;;;7.87;6.42;;;;;;;21.50;77.77;99356.20;1799625;80;21166;-75
2023/07/02 01:43:14;;;;;;;9.45;6.58;;;;;;;21.48;77.84;99359.84;1769361;80;21111;-76
2023/07/02 01:45:43;;;;;;;8.00;6.42;;;;;;;21.44;77.97;99347.59;1799567;80;21107;-76
2023/07/02 01:48:13;;;;;;;7.58;6.30;;;;;;;21.42;78.10;99349.28;1799625;80;21558;-75
2023/07/02 01:50:43;;;;;;;9.08;6.45;;;;;;;21.42;78.10;99349.84;1799518;79;21126;-76
2023/07/02 01:53:13;;;;;;;6.97;5.60;;;;;;;21.39;78.19;99350.44;1799884;79;21111;-76
2023/07/02 01:55:43;;;;;;;8.45;6.30;;;;;;;21.39;78.28;99350.44;1799800;79;21202;-76
2023/07/02 01:58:12;;;;;;;7.28;5.95;;;;;;;21.37;78.43;99351.29;1799666;79;21114;-75
2023/07/02 02:00:41;;;;;;;8.48;6.78;;;;;;;21.35;78.44;99365.52;1799923;80;21110;-74
2023/07/02 02:03:11;;;;;;;9.35;6.35;;;;;;;21.34;78.53;99358.84;1799728;79;21481;-73
2023/07/02 02:05:40;;;;;;;8.65;6.47;;;;;;;21.34;78.51;99359.67;1799847;79;21131;-75
2023/07/02 02:08:10;;;;;;;9.05;6.10;;;;;;;21.34;78.51;99356.89;1800136;80;21107;-75
2023/07/02 02:10:40;;;;;;;6.72;5.97;;;;;;;21.32;78.43;99357.75;1768782;80;21150;-74
2023/07/02 02:13:09;;;;;;;7.53;6.45;;;;;;;21.30;78.43;99356.38;1799925;80;21086;-76
2023/07/02 02:15:39;;;;;;;7.83;5.83;;;;;;;21.27;78.58;99365.33;1799743;80;21111;-75
2023/07/02 02:18:07;;;;;;;8.15;6.05;;;;;;;21.26;78.60;99367.28;1799637;80;21166;-74
2023/07/02 02:20:39;;;;;;;7.03;5.92;;;;;;;21.28;78.69;99361.41;1799760;80;21158;-75
2023/07/02 02:23:08;;;;;;;8.20;6.15;;;;;;;21.26;78.68;99373.41;1799703;79;21107;-76
2023/07/02 02:25:36;;;;;;;9.08;6.30;;;;;;;21.27;78.68;99367.55;1799652;79;21098;-74
2023/07/02 02:28:05;;;;;;;6.65;5.90;;;;;;;21.27;78.60;99370.34;1799894;79;21135;-76
2023/07/02 02:30:35;;;;;;;8.13;6.28;;;;;;;21.26;78.59;99369.23;1799554;79;21103;-74
2023/07/02 02:33:04;;;;;;;8.43;6.90;;;;;;;21.23;78.53;99372.05;1799795;79;21107;-77
2023/07/02 02:35:33;;;;;;;6.92;6.20;;;;;;;21.21;78.51;99365.91;1799641;80;21590;-75
2023/07/02 02:38:04;;;;;;;7.08;6.22;;;;;;;21.17;78.55;99362.88;1799739;79;21514;-76
2023/07/02 02:40:36;;;;;;;7.47;6.53;;;;;;;21.12;78.65;99360.14;1799781;79;21111;-76
2023/07/02 02:43:07;;;;;;;6.72;5.90;;;;;;;21.10;78.74;99362.38;1799708;79;21571;-75
2023/07/02 02:45:37;;;;;;;12.50;6.55;;;;;;;21.11;78.83;99368.22;1799608;79;21154;-75
2023/07/02 02:48:06;;;;;;;10.03;6.40;;;;;;;21.12;78.91;99360.70;1768023;80;21166;-75
2023/07/02 02:50:42;;;;;;;7.03;6.00;;;;;;;21.11;78.87;99366.00;1799931;80;21170;-75
2023/07/02 02:53:12;;;;;;;11.55;6.67;;;;;;;21.10;78.92;99363.78;1800168;80;21608;-74
2023/07/02 02:55:41;;;;;;;8.63;6.75;;;;;;;21.11;78.87;99361.27;1799947;80;21201;-74
2023/07/02 02:58:10;;;;;;;8.55;6.33;;;;;;;21.11;78.91;99364.05;1799804;80;21150;-75
2023/07/02 03:00:42;;;;;;;8.23;6.28;;;;;;;21.11;78.86;99357.08;1799936;79;21123;-75
2023/07/02 03:03:10;;;;;;;7.50;6.22;;;;;;;21.12;78.95;99364.31;1799954;79;21130;-75
2023/07/02 03:05:40;;;;;;;7.92;6.17;;;;;;;21.14;78.93;99359.84;1799598;80;21142;-75
2023/07/02 03:08:10;;;;;;;11.55;6.35;;;;;;;21.16;78.84;99361.21;1799857;80;21131;-75
2023/07/02 03:10:40;;;;;;;8.10;6.20;;;;;;;21.15;78.65;99362.90;1799800;79;21632;-76
2023/07/02 03:13:09;;;;;;;7.17;6.28;;;;;;;21.12;78.77;99361.53;1799701;79;21581;-74
2023/07/02 03:15:41;;;;;;;7.25;6.10;;;;;;;21.12;78.89;99362.92;1799809;80;21111;-75
2023/07/02 03:18:11;;;;;;;7.12;5.78;;;;;;;21.15;78.83;99354.54;1702502;84;21151;-74
2023/07/02 03:20:40;;;;;;;8.00;6.30;;;;;;;21.12;78.70;99350.39;1717781;82;21674;-76
2023/07/02 03:23:12;;;;;;;7.42;5.83;;;;;;;21.14;78.76;99352.31;1717925;83;21147;-74
2023/07/02 03:25:42;;;;;;;7.20;6.28;;;;;;;21.15;78.85;99345.63;1717788;83;21119;-73
2023/07/02 03:28:10;;;;;;;8.23;6.20;;;;;;;21.15;78.75;99344.23;1717781;81;21768;-75
2023/07/02 03:30:41;;;;;;;7.05;6.30;;;;;;;21.16;78.75;99348.67;1718066;83;21170;-74
2023/07/02 03:33:10;;;;;;;8.28;6.65;;;;;;;21.18;78.77;99347.82;1718805;83;21186;-75
2023/07/02 03:35:39;;;;;;;8.80;5.78;;;;;;;21.23;78.62;99341.96;1718049;83;21164;-75
2023/07/02 03:38:08;;;;;;;7.22;6.10;;;;;;;21.26;78.53;99343.59;1717920;83;21187;-76
2023/07/02 03:40:37;;;;;;;7.58;6.42;;;;;;;21.27;78.32;99351.39;1717861;83;21143;-74
2023/07/02 03:43:07;;;;;;;10.45;6.58;;;;;;;21.28;78.31;99351.66;1783672;79;21090;-74
2023/07/02 03:45:36;;;;;;;12.15;6.10;;;;;;;21.29;78.26;99349.14;1819398;79;21200;-76
2023/07/02 03:48:05;;;;;;;8.93;6.60;;;;;;;21.30;78.31;99350.80;1819868;77;21114;-76
2023/07/02 03:50:34;;;;;;;9.70;6.30;;;;;;;21.30;78.43;99355.81;1819536;79;21118;-75
2023/07/02 03:53:03;;;;;;;7.45;6.55;;;;;;;21.33;78.40;99354.40;1819614;79;21146;-77
2023/07/02 03:55:33;;;;;;;7.53;6.28;;;;;;;21.33;78.42;99353.84;1819504;78;21569;-76
2023/07/02 03:58:03;;;;;;;8.75;6.65;;;;;;;21.34;78.50;99356.06;1819647;77;21537;-74
2023/07/02 04:00:32;;;;;;;8.05;6.45;;;;;;;21.33;78.52;99351.05;1819850;79;21113;-76
2023/07/02 04:03:02;;;;;;;7.15;6.30;;;;;;;21.33;78.46;99348.27;1819503;77;21114;-76
2023/07/02 04:05:30;;;;;;;8.00;6.62;;;;;;;21.33;78.48;99351.05;1807833;78;21607;-76
2023/07/02 04:07:59;;;;;;;7.65;6.70;;;;;;;21.36;78.48;99347.67;1807805;79;21110;-74
2023/07/02 04:10:28;;;;;;;7.97;6.50;;;;;;;21.40;78.33;99347.35;1807474;79;21550;-75
2023/07/02 04:12:58;;;;;;;8.55;6.95;;;;;;;21.44;78.24;99343.41;1807519;79;21624;-75
2023/07/02 04:15:28;;;;;;;8.08;6.87;;;;;;;21.50;78.06;99347.84;1807458;79;21558;-75
2023/07/02 04:17:57;;;;;;;8.65;6.50;;;;;;;21.56;77.67;99346.66;1807683;78;21154;-75
2023/07/02 04:20:28;;;;;;;7.87;6.72;;;;;;;21.61;77.39;99349.39;1807805;79;21177;-74
2023/07/02 04:22:57;;;;;;;7.10;6.40;;;;;;;21.66;77.27;99351.28;1807877;79;21090;-75
2023/07/02 04:25:25;;;;;;;10.35;6.95;;;;;;;21.72;77.17;99345.92;1807555;79;21107;-74
2023/07/02 04:27:58;;;;;;;7.35;6.40;;;;;;;21.80;77.05;99349.45;1803360;79;21605;-75
2023/07/02 04:30:27;;;;;;;7.03;6.08;;;;;;;21.84;76.93;99347.16;1807622;79;21095;-78
2023/07/02 04:32:56;;;;;;;8.85;6.15;;;;;;;21.92;76.72;99347.63;1807915;79;21086;-77
2023/07/02 04:35:26;;;;;;;10.15;6.92;;;;;;;21.96;76.43;99336.97;1807651;79;21609;-74
2023/07/02 04:37:57;;;;;;;8.50;6.70;;;;;;;22.00;76.21;99339.98;1807720;79;21114;-75
2023/07/02 04:40:27;;;;;;;10.13;6.62;;;;;;;22.02;76.18;99339.13;1807703;79;21166;-76
2023/07/02 04:42:58;;;;;;;8.13;6.40;;;;;;;22.10;76.25;99339.89;1807436;79;21522;-75
2023/07/02 04:45:31;;;;;;;9.23;6.35;;;;;;;22.22;75.85;99347.85;1807681;79;21110;-75
2023/07/02 04:48:00;;;;;;;8.38;7.30;;;;;;;22.30;75.48;99346.61;1807823;79;21161;-76
2023/07/02 04:50:30;;;;;;;8.50;7.47;;;;;;;22.40;75.12;99349.25;1807698;79;21153;-76
2023/07/02 04:52:58;;;;;;;8.53;6.78;;;;;;;22.48;74.79;99345.52;1777626;79;21090;-74
2023/07/02 04:55:28;;;;;;;9.88;7.10;;;;;;;22.55;74.41;99348.20;1779028;79;21157;-76
2023/07/02 04:57:57;;;;;;;9.55;7.25;;;;;;;22.61;74.22;99346.16;1807512;78;21550;-77
2023/07/02 05:00:26;;;;;;;11.68;7.25;;;;;;;22.68;74.16;99347.44;1807546;79;21570;-78
2023/07/02 05:02:55;;;;;;;9.75;6.67;;;;;;;22.78;74.02;99345.08;1807553;79;21542;-77
2023/07/02 05:05:24;;;;;;;9.08;6.90;;;;;;;22.90;73.92;99343.23;1816805;78;21197;-77
2023/07/02 05:07:55;;;;;;;11.18;7.30;;;;;;;23.03;73.69;99341.06;1819738;79;21114;-78
2023/07/02 05:10:23;;;;;;;9.15;7.10;;;;;;;23.22;73.22;99346.03;1819574;78;21536;-77
2023/07/02 05:12:53;;;;;;;9.43;7.20;;;;;;;23.37;72.47;99340.72;1819782;79;21078;-78
2023/07/02 05:15:24;;;;;;;11.43;7.53;;;;;;;23.51;71.81;99337.98;1785124;77;21118;-77
2023/07/02 05:17:53;;;;;;;7.30;6.55;;;;;;;23.68;70.83;99341.03;1786374;79;21142;-75
2023/07/02 05:20:22;;;;;;;6.90;6.08;;;;;;;23.90;70.04;99348.13;1819494;78;21564;-76
2023/07/02 05:22:52;;;;;;;6.83;5.83;;;;;;;24.15;68.55;99342.59;1819805;77;21580;-77
2023/07/02 05:25:22;;;;;;;7.10;6.37;;;;;;;24.34;67.28;99343.31;1819437;77;21647;-76
2023/07/02 05:27:50;;;;;;;8.53;5.90;;;;;;;24.57;66.74;99344.75;1819398;79;21599;-74
2023/07/02 05:30:20;;;;;;;9.38;6.33;;;;;;;24.81;65.79;99340.28;1819394;79;21548;-76
2023/07/02 05:32:49;;;;;;;6.47;5.55;;;;;;;25.06;65.14;99344.45;1819720;77;21205;-75
2023/07/02 05:35:18;;;;;;;8.98;6.15;;;;;;;25.29;63.97;99336.27;1819540;79;21086;-76
2023/07/02 05:37:48;;;;;;;8.95;6.03;;;;;;;25.49;63.08;99339.13;1819588;78;21581;-77
2023/07/02 05:40:16;;;;;;;5.92;5.37;;;;;;;25.65;62.25;99336.73;1819577;77;21569;-76
2023/07/02 05:42:46;;;;;;;9.90;5.55;;;;;;;25.84;60.47;99333.13;1819693;79;21101;-76
2023/07/02 05:45:15;;;;;;;6.30;5.70;;;;;;;26.03;59.84;99335.11;1819604;77;21078;-76
2023/07/02 05:47:44;;;;;;;6.67;5.55;;;;;;;26.25;58.92;99335.57;1819573;77;21537;-76
2023/07/02 05:50:14;;;;;;;7.10;5.87;;;;;;;26.41;58.13;99326.12;1819420;79;21554;-77
2023/07/02 05:52:43;;;;;;;8.30;5.22;;;;;;;26.49;57.69;99326.71;1819721;79;21122;-75
2023/07/02 05:55:12;;;;;;;9.00;6.35;;;;;;;26.47;57.42;99329.84;1820078;77;21118;-76
2023/07/02 05:57:41;;;;;;;6.92;5.67;;;;;;;26.42;57.14;99330.01;1819138;79;21158;-77
2023/07/02 06:00:12;;;;;;;6.62;5.72;;;;;;;26.38;57.16;99325.38;1819502;79;21197;-76
2023/07/02 06:02:45;;;;;;;6.83;5.22;;;;;;;26.40;57.28;99321.66;1819527;77;21592;-76
2023/07/02 06:05:13;;;;;;;10.48;5.37;;;;;;;26.49;56.48;99326.71;1812156;78;21126;-76
2023/07/02 06:07:45;;;;;;;5.92;5.28;;;;;;;26.60;56.03;99322.99;1807438;79;21119;-77
2023/07/02 06:10:14;;;;;;;9.28;6.08;;;;;;;26.79;55.76;99327.16;1807635;79;21094;-76
2023/07/02 06:12:45;;;;;;;6.42;5.55;;;;;;;27.06;55.61;99325.17;1807706;79;21078;-76
2023/07/02 06:15:14;;;;;;;10.48;6.22;;;;;;;27.26;54.49;99321.66;1807353;79;21969;-76
2023/07/02 06:17:43;;;;;;;8.18;5.92;;;;;;;27.26;53.89;99317.44;1807344;78;21158;-78
2023/07/02 06:20:14;;;;;;;8.43;5.80;;;;;;;27.08;54.99;99320.05;1807821;79;21126;-76
2023/07/02 06:22:43;;;;;;;7.00;5.75;;;;;;;27.08;54.99;99320.05;1807692;79;21150;-78
2023/07/02 06:25:12;;;;;;;9.48;5.87;;;;;;;27.16;54.74;99319.20;1807631;79;21111;-76
2023/07/02 06:27:44;;;;;;;5.87;5.28;;;;;;;27.59;53.94;99317.69;1807269;79;21161;-75
2023/07/02 06:30:14;;;;;;;6.30;5.70;;;;;;;27.59;53.94;99317.69;1807247;79;21106;-76
2023/07/02 06:32:43;;;;;;;7.55;5.30;;;;;;;27.76;52.57;99310.61;1807552;78;21146;-76
2023/07/02 06:35:12;;;;;;;9.03;5.58;;;;;;;27.95;51.96;99314.40;1807346;79;21615;-76
2023/07/02 06:37:42;;;;;;;8.25;5.50;;;;;;;28.14;51.63;99318.80;1807384;79;21128;-78
2023/07/02 06:40:12;;;;;;;6.47;5.00;;;;;;;28.30;50.63;99306.62;1807707;79;21161;-77
2023/07/02 06:42:41;;;;;;;6.45;5.17;;;;;;;28.44;49.88;99311.98;1807597;79;21146;-77
2023/07/02 06:45:10;;;;;;;6.00;5.15;;;;;;;28.53;49.29;99309.92;1807572;79;21095;-75
2023/07/02 06:47:39;;;;;;;6.42;4.75;;;;;;;28.66;48.90;99317.31;1807405;79;21106;-79
2023/07/02 06:50:09;;;;;;;6.42;4.70;;;;;;;28.75;47.90;99307.95;1807756;78;21134;-77
2023/07/02 06:52:38;;;;;;;4.95;4.35;;;;;;;28.88;47.67;99319.56;1807765;79;21103;-77
2023/07/02 06:55:07;;;;;;;7.72;4.80;;;;;;;29.01;46.73;99312.21;1807558;79;21133;-77
2023/07/02 06:57:45;;;;;;;8.35;4.60;;;;;;;29.09;46.07;99316.70;1807409;79;21091;-77
2023/07/02 07:00:15;;;;;;;5.97;4.62;;;;;;;29.09;46.40;99313.30;1807753;79;21114;-71
2023/07/02 07:02:45;;;;;;;8.08;4.78;;;;;;;29.31;46.45;99313.50;1807617;79;21577;-77
2023/07/02 07:05:15;;;;;;;4.78;4.17;;;;;;;29.61;45.46;99308.53;1813153;78;21094;-77
2023/07/02 07:07:46;;;;;;;4.75;4.12;;;;;;;29.86;44.45;99313.02;1819920;77;21146;-75
2023/07/02 07:10:15;;;;;;;4.65;4.25;;;;;;;30.07;43.74;99303.66;1819942;79;21173;-77
2023/07/02 07:12:45;;;;;;;7.25;4.28;;;;;;;30.23;43.78;99310.23;1819959;79;21106;-77
2023/07/02 07:15:14;;;;;;;7.37;4.67;;;;;;;30.32;43.78;99310.10;1819611;79;21618;-77
2023/07/02 07:17:43;;;;;;;5.05;3.95;;;;;;;30.44;43.03;99316.55;1819736;77;21125;-75
2023/07/02 07:20:12;;;;;;;4.50;4.03;;;;;;;30.58;42.15;99292.98;1819756;79;21114;-79
2023/07/02 07:22:42;;;;;;;7.20;4.30;;;;;;;30.74;41.69;99300.74;1819600;77;21168;-79
2023/07/02 07:25:11;;;;;;;5.58;4.20;;;;;;;30.94;40.67;99298.30;1819491;79;21173;-75
2023/07/02 07:27:40;;;;;;;5.75;4.00;;;;;;;31.14;39.73;99290.78;1819781;79;21094;-77
2023/07/02 07:30:10;;;;;;;4.85;4.08;;;;;;;31.23;39.11;99289.26;1819757;77;21164;-77
2023/07/02 07:32:39;;;;;;;4.55;3.72;;;;;;;31.29;39.45;99291.46;1819576;79;21102;-78
2023/07/02 07:35:08;;;;;;;5.28;4.33;;;;;;;31.45;38.81;99292.89;1819643;79;21149;-76
2023/07/02 07:37:37;;;;;;;4.35;3.95;;;;;;;31.43;38.60;99291.84;1819436;77;21090;-77
2023/07/02 07:40:07;;;;;;;6.08;4.22;;;;;;;31.45;39.01;99291.48;1819660;79;21109;-77
2023/07/02 07:55:20;;;;;;;6.45;3.92;;;;;;;32.62;36.23;99280.84;1848292;77;22599;-62
2023/07/02 07:57:49;;;;;;;5.25;4.12;;;;;;;32.55;36.55;99275.01;1754115;82;21135;-62
2023/07/02 08:00:19;;;;;;;7.72;4.25;;;;;;;32.54;36.45;99283.30;1785291;80;21537;-61
2023/07/02 08:02:48;;;;;;;4.12;3.60;;;;;;;32.59;36.55;99278.15;1741602;82;21150;-62
2023/07/02 08:05:17;;;;;;;5.22;3.90;;;;;;;32.69;36.83;99275.31;1772264;81;21588;-62
2023/07/02 08:07:46;;;;;;;3.70;3.37;;;;;;;32.82;35.96;99275.41;1754244;82;21193;-61
2023/07/02 08:10:16;;;;;;;5.67;3.87;;;;;;;32.94;35.39;99271.59;1746965;82;21119;-60
2023/07/02 08:12:47;;;;;;;4.97;4.28;;;;;;;32.90;35.66;99283.48;1740194;81;21127;-62
2023/07/02 08:15:16;;;;;;;4.67;3.70;;;;;;;32.89;35.79;99271.91;1738491;82;21114;-62
2023/07/02 08:17:45;;;;;;;4.47;3.65;;;;;;;32.94;35.57;99273.84;1738248;82;21145;-63
2023/07/02 08:20:16;;;;;;;4.05;3.65;;;;;;;32.77;35.66;99265.19;1738328;82;21119;-64
2023/07/02 08:22:45;;;;;;;4.30;3.30;;;;;;;32.57;36.29;99266.35;1738547;82;21557;-65
2023/07/02 08:25:16;;;;;;;6.10;3.58;;;;;;;32.59;36.54;99263.14;1738544;82;21118;-64
2023/07/02 08:27:45;;;;;;;7.05;3.80;;;;;;;32.79;35.96;99261.98;1748116;82;21144;-62
2023/07/02 08:30:14;;;;;;;5.58;3.70;;;;;;;32.94;36.02;99268.16;1757499;82;21195;-63
2023/07/02 08:32:43;;;;;;;4.83;3.67;;;;;;;33.09;35.24;99267.25;1756893;82;21132;-64
2023/07/02 08:35:13;;;;;;;5.47;3.45;;;;;;;33.21;34.42;99271.95;1756674;82;21625;-62
2023/07/02 08:37:44;;;;;;;5.85;3.10;;;;;;;33.34;33.25;99271.22;1729769;82;21140;-62
2023/07/02 08:40:19;;;;;;;3.92;3.10;;;;;;;33.39;32.76;99269.48;1756826;81;21595;-62
2023/07/02 08:42:49;;;;;;;3.92;3.22;;;;;;;33.37;33.00;99265.59;1757090;82;21115;-62
2023/07/02 08:45:18;;;;;;;3.90;3.10;;;;;;;33.37;32.72;99267.02;1760593;81;21154;-62
2023/07/02 08:47:50;;;;;;;7.53;3.50;;;;;;;33.44;33.04;99264.91;1761873;80;21185;-65
2023/07/02 08:50:21;;;;;;;4.75;3.00;;;;;;;33.50;32.24;99271.91;1761850;81;21174;-62
2023/07/02 08:52:50;;;;;;;5.90;3.45;;;;;;;33.39;32.16;99270.30;1744724;81;21118;-67
2023/07/02 08:55:20;;;;;;;4.35;3.05;;;;;;;33.39;32.51;99271.72;1744489;81;21607;-62
2023/07/02 08:57:54;;;;;;;5.78;3.37;;;;;;;33.42;32.42;99262.22;1741792;82;21542;-62
2023/07/02 09:00:23;;;;;;;5.05;3.90;;;;;;;33.41;32.64;99271.34;1741764;82;21198;-61
2023/07/02 09:02:52;;;;;;;5.17;3.67;;;;;;;33.49;32.97;99264.59;1741718;82;21159;-61
2023/07/02 09:05:21;;;;;;;4.50;3.60;;;;;;;33.27;33.50;99261.11;1741588;82;21559;-63
2023/07/02 09:07:52;;;;;;;4.10;3.60;;;;;;;32.93;33.86;99265.10;1741223;82;21140;-63
2023/07/02 09:10:30;;;;;;;5.00;3.87;;;;;;;32.74;33.66;99267.33;1741054;82;21578;-61
2023/07/02 09:13:08;;;;;;;5.42;3.52;;;;;;;32.59;34.32;99254.03;1741004;82;21563;-62
2023/07/02 09:15:40;;;;;;;3.95;3.55;;;;;;;32.50;35.01;99257.66;1741111;82;21211;-62
2023/07/02 09:18:22;;;;;;;4.78;3.30;;;;;;;32.53;34.27;99264.63;1741086;82;21576;-62
2023/07/02 09:20:53;;;;;;;6.00;3.75;;;;;;;32.61;34.07;99260.75;1741246;82;21118;-61
2023/07/02 09:23:22;;;;;;;4.05;3.58;;;;;;;32.70;33.71;99257.09;1716411;82;21160;-63
2023/07/02 09:25:50;;;;;;;4.53;3.35;;;;;;;32.72;33.49;99260.38;1740962;82;21113;-62
2023/07/02 09:28:26;;;;;;;7.75;3.60;;;;;;;32.70;33.68;99255.68;1741201;82;21610;-63
2023/07/02 09:30:56;;;;;;;5.30;3.72;;;;;;;32.63;33.84;99256.95;1741389;82;21164;-63
2023/07/02 09:33:28;;;;;;;5.33;3.72;;;;;;;32.51;33.87;99247.14;1741346;82;21121;-62
2023/07/02 09:35:57;;;;;;;6.75;3.40;;;;;;;32.34;34.21;99244.14;1740997;82;21661;-63
2023/07/02 09:38:28;;;;;;;7.00;3.33;;;;;;;32.18;34.53;99247.00;1741251;82;21586;-64
2023/07/02 09:40:59;;;;;;;6.78;3.50;;;;;;;32.07;35.24;99245.93;1741051;82;21578;-63
2023/07/02 09:43:28;;;;;;;6.03;3.60;;;;;;;31.98;34.89;99250.98;1741149;82;21135;-62
2023/07/02 09:45:57;;;;;;;3.95;3.55;;;;;;;31.81;34.79;99238.82;1716895;82;21162;-63
2023/07/02 09:48:26;;;;;;;6.58;3.12;;;;;;;31.69;34.89;99233.83;1719202;83;21111;-64
2023/07/02 09:50:56;;;;;;;4.53;3.50;;;;;;;31.63;34.21;99238.95;1741075;82;21178;-63
2023/07/02 09:53:28;;;;;;;3.83;3.33;;;;;;;31.55;33.84;99232.88;1758769;79;21538;-63
2023/07/02 09:55:59;;;;;;;4.50;3.45;;;;;;;31.51;34.14;99234.80;1798615;79;21162;-66
2023/07/02 09:58:27;;;;;;;4.87;3.30;;;;;;;31.51;34.62;99231.97;1718475;82;21115;-63
2023/07/02 10:00:57;;;;;;;5.87;3.70;;;;;;;31.56;34.92;99227.45;1798756;80;21174;-63
2023/07/02 10:03:33;;;;;;;6.42;3.50;;;;;;;31.58;34.74;99227.90;1718300;83;21173;-62
2023/07/02 10:06:06;;;;;;;4.95;3.72;;;;;;;31.50;34.83;99219.00;1798685;80;21171;-63
2023/07/02 10:08:36;;;;;;;6.45;3.72;;;;;;;31.48;34.82;99212.88;1798949;80;21571;-64
2023/07/02 10:11:13;;;;;;;5.67;3.90;;;;;;;31.46;35.15;99211.83;1798922;79;21235;-63
2023/07/02 10:13:44;;;;;;;9.00;4.00;;;;;;;31.44;35.62;99209.14;1798612;80;21170;-64
2023/07/02 10:16:14;;;;;;;4.30;3.30;;;;;;;31.49;35.73;99220.19;1798585;80;21111;-63
2023/07/02 10:18:43;;;;;;;5.97;3.42;;;;;;;31.49;34.92;99211.69;1718381;83;21158;-63
2023/07/02 10:21:16;;;;;;;3.77;3.33;;;;;;;31.36;35.31;99203.07;1774617;80;21601;-63
2023/07/02 10:23:46;;;;;;;4.87;3.80;;;;;;;31.36;35.51;99204.48;1770544;80;21147;-65
2023/07/02 10:26:19;;;;;;;4.87;3.70;;;;;;;31.35;35.24;99203.66;1798532;80;21127;-64
2023/07/02 10:28:59;;;;;;;6.72;3.45;;;;;;;31.37;35.65;99191.38;1798898;80;21099;-64
2023/07/02 10:31:29;;;;;;;4.22;3.58;;;;;;;31.35;34.94;99195.77;1718260;83;21123;-64
2023/07/02 10:33:59;;;;;;;5.12;3.50;;;;;;;31.36;34.70;99197.41;1798679;80;21567;-64
2023/07/02 10:36:28;;;;;;;7.37;3.72;;;;;;;31.39;34.43;99199.51;1798782;80;21159;-65
2023/07/02 10:39:05;;;;;;;7.65;3.30;;;;;;;31.36;34.48;99195.99;1718397;83;21163;-64
2023/07/02 10:41:33;;;;;;;5.45;3.90;;;;;;;31.32;34.68;99180.93;1798908;80;21578;-65
2023/07/02 10:44:10;;;;;;;5.20;3.50;;;;;;;31.34;34.80;99169.47;1718299;83;21147;-63
2023/07/02 10:46:46;;;;;;;5.05;3.52;;;;;;;31.36;35.18;99169.92;1798629;80;21167;-64
2023/07/02 10:49:18;;;;;;;4.37;3.77;;;;;;;31.39;35.65;99172.02;1681199;84;21691;-64
2023/07/02 10:51:50;;;;;;;5.92;3.72;;;;;;;31.42;35.47;99178.36;1704027;84;21578;-65
2023/07/02 10:54:21;;;;;;;5.42;3.80;;;;;;;31.37;35.58;99164.48;1544047;92;21234;-64
2023/07/02 10:56:51;;;;;;;4.90;4.08;;;;;;;31.36;35.55;99162.02;1619793;88;21245;-63
2023/07/02 10:59:26;;;;;;;4.78;3.85;;;;;;;31.33;35.57;99164.17;1598882;88;21723;-64
2023/07/02 11:02:01;;;;;;;7.05;4.60;;;;;;;31.29;35.66;99161.84;1619648;88;21146;-65
2023/07/02 11:04:27;;;;;;;6.33;4.00;;;;;;;31.24;35.83;99159.30;1599270;88;21238;-63
2023/07/02 11:06:58;;;;;;;7.47;4.28;;;;;;;31.21;35.90;99150.91;1645263;84;21179;-63
2023/07/02 11:09:28;;;;;;;4.65;3.58;;;;;;;31.19;36.17;99152.69;1638458;87;21171;-63
2023/07/02 11:11:58;;;;;;;6.30;3.80;;;;;;;31.19;36.02;99149.86;1701799;84;21159;-65
2023/07/02 11:14:35;;;;;;;6.35;3.80;;;;;;;31.25;35.79;99141.13;1638492;87;21227;-62
2023/07/02 11:17:06;;;;;;;10.03;3.55;;;;;;;31.32;34.19;99142.72;1638639;87;21567;-63
2023/07/02 11:19:35;;;;;;;8.48;3.92;;;;;;;31.25;33.48;99143.95;1782258;79;21130;-62
2023/07/02 11:22:06;;;;;;;3.85;3.27;;;;;;;31.16;33.86;99136.44;1806708;79;21177;-63
2023/07/02 11:24:36;;;;;;;8.00;4.35;;;;;;;31.16;33.92;99137.03;1735608;83;21621;-62
2023/07/02 11:27:06;;;;;;;7.87;3.80;;;;;;;31.19;34.09;99132.87;1806514;79;21135;-63
2023/07/02 11:29:37;;;;;;;4.28;3.20;;;;;;;31.16;34.02;99129.95;1806731;79;21087;-62
2023/07/02 11:32:09;;;;;;;4.92;3.72;;;;;;;31.10;34.32;99140.70;1806593;79;21632;-64
2023/07/02 11:34:41;;;;;;;7.40;4.22;;;;;;;31.08;34.54;99133.17;1806636;79;21825;-63
2023/07/02 11:37:10;;;;;;;5.35;3.77;;;;;;;31.06;34.66;99132.72;1735657;83;21167;-62
2023/07/02 11:39:43;;;;;;;5.80;3.55;;;;;;;31.04;34.96;99117.30;1806529;79;21130;-63
2023/07/02 11:42:12;;;;;;;5.65;4.00;;;;;;;31.06;34.70;99114.33;1778364;79;21595;-61
2023/07/02 11:44:42;;;;;;;4.40;3.60;;;;;;;31.06;34.87;99110.67;1806896;79;21166;-62
2023/07/02 11:47:11;;;;;;;6.03;3.80;;;;;;;31.05;35.13;99100.55;1735708;83;21186;-63
2023/07/02 11:49:41;;;;;;;6.87;3.92;;;;;;;31.07;35.29;99099.59;1806417;79;21147;-63
2023/07/02 11:52:13;;;;;;;4.17;3.72;;;;;;;31.06;35.44;99106.43;1806470;79;21592;-63
2023/07/02 11:54:43;;;;;;;7.40;3.92;;;;;;;31.06;35.45;99105.84;1735402;83;21171;-62
2023/07/02 11:57:12;;;;;;;7.42;4.00;;;;;;;31.03;35.21;99098.08;1806494;79;21107;-64